CheckWX is a tool to help pilots better visualize weather data.  It is not intended as a substitute for an official pre-flight weather briefing.

06:36:42 UTC

KBCB METAR
Virginia Tech / Montgomery Executive Airport
Blacksburg, Virginia, USA
Current

27 mins ago

KBCB 230610Z AUTO 00000KT 10SM CLR 10/07 A3017 RMK AO2 T00950070
Observed
Apr-23 @ 06:10 UTC
Visibility
10 SM
Flight Rules
VFR
Cloud Levels
  • Clear skies
Temperature
10°C / 50°F
Dewpoint
C / 45°F
Humidity
82%
Altimeter
30.17" Hg
Pressure
1021.72 hPa
Previous

47 mins ago

KBCB 230550Z AUTO 00000KT 10SM CLR 10/07 A3017 RMK AO2 T01040070 10185 20100
Observed
Apr-23 @ 05:50 UTC
Visibility
10 SM
Flight Rules
VFR
Cloud Levels
  • Clear skies
Temperature
10°C / 50°F
Dewpoint
C / 45°F
Humidity
82%
Altimeter
30.17" Hg
Pressure
1021.72 hPa
Previous

1 hour ago

KBCB 230530Z AUTO 00000KT 10SM CLR 10/07 A3017 RMK AO2 T01000071
Observed
Apr-23 @ 05:30 UTC
Visibility
10 SM
Flight Rules
VFR
Cloud Levels
  • Clear skies
Temperature
10°C / 50°F
Dewpoint
C / 45°F
Humidity
82%
Altimeter
30.17" Hg
Pressure
1021.72 hPa